createdAt,value
2019-04-23T00:00:38.093Z,1.40
2019-04-23T00:01:35.469Z,3.00
2019-04-23T00:02:31.621Z,2.40
2019-04-23T00:03:35.674Z,1.70
2019-04-23T00:04:31.462Z,2.50
2019-04-23T00:06:40.642Z,4.10
2019-04-23T00:07:46.690Z,4.00
2019-04-23T00:08:35.769Z,2.40
2019-04-23T00:09:35.683Z,3.00
2019-04-23T00:10:36.634Z,1.60
2019-04-23T00:11:32.545Z,2.70
2019-04-23T00:13:41.854Z,4.00
2019-04-23T00:14:39.534Z,2.50
2019-04-23T00:15:33.466Z,3.50
2019-04-23T00:16:35.582Z,2.70
2019-04-23T00:17:37.304Z,2.70
2019-04-23T00:18:37.276Z,1.40
2019-04-23T00:19:32.975Z,4.70
2019-04-23T00:20:39.331Z,3.00
2019-04-23T00:21:38.522Z,3.30
2019-04-23T00:22:36.557Z,1.70
2019-04-23T00:23:40.828Z,1.70
2019-04-23T00:24:53.298Z,4.00
2019-04-23T00:25:47.104Z,5.80
2019-04-23T00:27:35.788Z,6.20
2019-04-23T00:28:36.083Z,1.70
2019-04-23T00:29:44.411Z,6.10
2019-04-23T00:31:57.619Z,3.10
2019-04-23T00:32:34.896Z,3.00
2019-04-23T00:33:31.355Z,2.10
2019-04-23T00:34:34.459Z,2.60
2019-04-23T00:35:37.451Z,3.30
2019-04-23T00:36:37.723Z,3.00
2019-04-23T00:38:38.920Z,1.90
2019-04-23T00:39:34.369Z,3.70
2019-04-23T00:40:35.728Z,2.20
2019-04-23T00:41:36.298Z,5.90
2019-04-23T00:42:38.546Z,2.10
2019-04-23T00:43:40.992Z,2.00
2019-04-23T00:44:40.058Z,1.40
2019-04-23T00:46:35.253Z,4.10
2019-04-23T00:47:40.086Z,1.60
2019-04-23T00:48:35.065Z,3.60
2019-04-23T00:49:37.221Z,2.00
2019-04-23T00:50:41.001Z,1.80
2019-04-23T00:51:33.051Z,1.60
2019-04-23T00:52:32.146Z,2.40
2019-04-23T00:53:26.983Z,2.50
2019-04-23T00:54:34.213Z,2.00
2019-04-23T00:55:28.193Z,4.40
2019-04-23T00:56:40.286Z,6.30
2019-04-23T00:57:38.852Z,2.90
2019-04-23T00:58:36.611Z,1.90
2019-04-23T00:59:38.700Z,2.40
2019-04-23T01:00:41.228Z,3.80
2019-04-23T01:01:37.374Z,1.80
2019-04-23T01:03:25.177Z,2.20
2019-04-23T01:04:32.730Z,2.70
2019-04-23T01:05:31.109Z,2.70
2019-04-23T01:06:32.136Z,3.80
2019-04-23T01:07:34.352Z,4.60
2019-04-23T01:08:30.158Z,2.80
2019-04-23T01:09:38.668Z,3.50
2019-04-23T01:10:41.425Z,2.40
2019-04-23T01:12:38.283Z,4.00
2019-04-23T01:13:39.593Z,3.50
2019-04-23T01:14:32.608Z,3.10
2019-04-23T01:15:42.634Z,3.10
2019-04-23T01:16:29.809Z,3.00
2019-04-23T01:17:49.284Z,2.90
2019-04-23T01:18:45.921Z,3.00
2019-04-23T01:19:41.774Z,3.70
2019-04-23T01:20:40.625Z,2.10
2019-04-23T01:21:11.713Z,2.90
2019-04-23T01:22:10.574Z,3.30
2019-04-23T01:23:09.714Z,4.50
2019-04-23T01:24:15.342Z,2.70
2019-04-23T01:25:20.987Z,3.00
2019-04-23T01:26:33.048Z,3.60
2019-04-23T01:29:38.860Z,2.50
2019-04-23T01:30:38.726Z,3.40
2019-04-23T01:31:33.179Z,2.20
2019-04-23T01:32:49.709Z,2.30
2019-04-23T01:33:38.019Z,3.50
2019-04-23T01:34:38.975Z,2.20
2019-04-23T01:35:32.642Z,4.00
2019-04-23T01:36:32.723Z,2.20
2019-04-23T01:37:36.500Z,2.80
2019-04-23T01:38:40.483Z,2.20
2019-04-23T01:39:33.013Z,2.60
2019-04-23T01:40:36.548Z,5.60
2019-04-23T01:41:45.289Z,2.70
2019-04-23T01:42:40.501Z,3.40
2019-04-23T01:43:36.505Z,4.80
2019-04-23T01:45:29.617Z,2.30
2019-04-23T01:46:35.993Z,2.90
2019-04-23T01:47:38.841Z,4.80
2019-04-23T01:48:40.417Z,2.80
2019-04-23T01:51:39.986Z,2.60
2019-04-23T01:52:41.753Z,2.70
2019-04-23T01:54:38.542Z,2.70
2019-04-23T01:56:33.484Z,3.20
2019-04-23T01:57:37.747Z,2.70
2019-04-23T01:59:42.982Z,3.30
2019-04-23T02:00:37.087Z,2.90
2019-04-23T02:01:43.210Z,4.10
2019-04-23T02:02:46.144Z,3.50
2019-04-23T02:03:36.585Z,2.90
2019-04-23T02:04:36.267Z,4.00
2019-04-23T02:05:34.896Z,4.10
2019-04-23T02:06:42.132Z,3.80
2019-04-23T02:07:44.328Z,3.40
2019-04-23T02:08:32.030Z,3.40
2019-04-23T02:09:41.976Z,3.80
2019-04-23T02:11:37.726Z,3.80
2019-04-23T02:12:42.007Z,4.40
2019-04-23T02:13:36.941Z,2.90
2019-04-23T02:14:34.994Z,3.50
2019-04-23T02:15:36.338Z,4.10
2019-04-23T02:16:35.906Z,3.40
2019-04-23T02:17:38.351Z,6.10
2019-04-23T02:18:38.868Z,3.60
2019-04-23T02:19:42.869Z,3.10
2019-04-23T02:20:38.846Z,4.80
2019-04-23T02:21:39.491Z,3.30
2019-04-23T02:22:42.313Z,3.50
2019-04-23T02:23:39.567Z,5.20
2019-04-23T02:24:41.246Z,5.90
2019-04-23T02:25:52.135Z,5.80
2019-04-23T02:26:34.138Z,4.70
2019-04-23T02:27:47.046Z,3.70
2019-04-23T02:28:42.771Z,4.00
2019-04-23T02:30:02.580Z,3.30
2019-04-23T02:32:49.226Z,3.80
2019-04-23T02:33:46.834Z,5.90
2019-04-23T02:34:51.225Z,5.30
2019-04-23T02:35:55.880Z,4.50
2019-04-23T02:36:46.773Z,5.00
2019-04-23T02:37:45.609Z,3.30
2019-04-23T02:38:45.689Z,5.50
2019-04-23T02:39:51.323Z,3.70
2019-04-23T02:41:47.018Z,4.20
2019-04-23T02:43:35.679Z,4.40
2019-04-23T02:44:38.901Z,4.40
2019-04-23T02:45:54.598Z,6.20
2019-04-23T02:46:40.942Z,4.80
2019-04-23T02:47:48.555Z,3.90
2019-04-23T02:48:45.945Z,3.90
2019-04-23T02:50:40.508Z,7.10
2019-04-23T02:51:48.083Z,4.40
2019-04-23T02:52:47.360Z,4.40
2019-04-23T02:56:48.990Z,7.80
2019-04-23T02:58:49.045Z,4.50
2019-04-23T02:59:53.785Z,5.30
2019-04-23T03:00:55.170Z,4.80
2019-04-23T03:03:01.257Z,5.10
2019-04-23T03:04:42.116Z,4.60
2019-04-23T03:06:00.984Z,6.40
2019-04-23T03:09:45.850Z,6.90
2019-04-23T03:10:44.713Z,8.00
2019-04-23T03:11:47.891Z,5.40
2019-04-23T03:12:59.312Z,6.20
2019-04-23T03:13:48.254Z,4.20
2019-04-23T03:14:46.156Z,6.20
2019-04-23T03:15:55.741Z,7.40
2019-04-23T03:16:53.860Z,4.20
2019-04-23T03:17:52.974Z,6.40
2019-04-23T03:18:45.952Z,5.30
2019-04-23T03:19:38.172Z,5.10
2019-04-23T03:21:00.379Z,5.50
2019-04-23T03:23:00.525Z,5.80
2019-04-23T03:23:52.240Z,6.10
2019-04-23T03:24:52.087Z,5.50
2019-04-23T03:25:36.549Z,6.80
2019-04-23T03:26:53.186Z,5.80
2019-04-23T03:31:56.914Z,5.90
2019-04-23T03:32:45.514Z,6.10
2019-04-23T03:36:17.028Z,5.50
2019-04-23T03:37:08.977Z,6.00
2019-04-23T03:37:40.377Z,4.60
2019-04-23T03:40:36.986Z,4.30
2019-04-23T03:41:48.721Z,5.40
2019-04-23T03:42:43.175Z,5.30
2019-04-23T03:44:47.801Z,5.50
2019-04-23T03:46:03.188Z,5.60
2019-04-23T03:46:36.679Z,7.60
2019-04-23T03:48:03.226Z,5.80
2019-04-23T03:51:42.705Z,4.50
2019-04-23T03:55:45.369Z,6.60
2019-04-23T03:56:52.483Z,6.10
2019-04-23T03:58:42.772Z,6.50
2019-04-23T04:01:46.650Z,5.10
2019-04-23T04:02:52.483Z,4.90
2019-04-23T04:04:12.382Z,5.80
2019-04-23T04:06:59.475Z,5.30
2019-04-23T04:10:55.702Z,4.90
2019-04-23T04:11:29.144Z,5.50
2019-04-23T04:13:53.226Z,8.20
2019-04-23T04:14:44.416Z,6.00
2019-04-23T04:16:47.057Z,6.20
2019-04-23T04:17:40.196Z,6.10
2019-04-23T04:18:46.172Z,6.00
2019-04-23T04:20:50.447Z,5.90
2019-04-23T04:21:38.966Z,8.00
2019-04-23T04:22:49.763Z,5.50
2019-04-23T04:23:42.695Z,7.00
2019-04-23T04:24:39.962Z,6.70
2019-04-23T04:25:46.700Z,7.90
2019-04-23T04:28:48.823Z,5.20
2019-04-23T04:29:47.449Z,8.10
2019-04-23T04:32:54.602Z,6.90
2019-04-23T04:34:00.736Z,5.60
2019-04-23T04:35:08.422Z,6.00
2019-04-23T04:36:45.836Z,8.30
2019-04-23T04:38:46.943Z,7.70
2019-04-23T04:39:53.207Z,5.50
2019-04-23T04:40:42.270Z,5.90
2019-04-23T04:42:45.023Z,6.30
2019-04-23T04:48:44.276Z,6.30
2019-04-23T04:50:57.457Z,7.90
2019-04-23T04:51:51.552Z,6.40
2019-04-23T04:52:50.859Z,6.60
2019-04-23T04:54:22.743Z,5.50
2019-04-23T04:59:51.206Z,6.20
2019-04-23T05:00:54.769Z,8.60
2019-04-23T05:01:36.939Z,7.50
2019-04-23T05:02:53.819Z,5.90
2019-04-23T05:07:42.162Z,6.40
2019-04-23T05:09:48.471Z,8.30
2019-04-23T05:10:47.474Z,7.20
2019-04-23T05:11:45.837Z,6.90
2019-04-23T05:12:39.083Z,7.20
2019-04-23T05:15:39.015Z,5.80
2019-04-23T05:18:36.148Z,6.60
2019-04-23T05:22:58.208Z,6.50
2019-04-23T05:23:37.049Z,6.10
2019-04-23T05:24:35.242Z,7.30
2019-04-23T05:25:31.660Z,6.80
2019-04-23T05:26:26.948Z,7.00
2019-04-23T05:27:42.596Z,7.10
2019-04-23T05:28:38.765Z,6.40
2019-04-23T05:29:46.537Z,6.80
2019-04-23T05:30:42.988Z,6.80
2019-04-23T05:31:33.118Z,6.90
2019-04-23T05:32:39.509Z,7.30
2019-04-23T05:33:57.242Z,6.30
2019-04-23T05:34:36.227Z,6.30
2019-04-23T05:36:02.040Z,10.50
2019-04-23T05:37:42.313Z,10.40
2019-04-23T05:38:43.832Z,7.00
2019-04-23T05:39:35.420Z,6.70
2019-04-23T05:40:49.728Z,7.30
2019-04-23T05:41:34.841Z,6.40
2019-04-23T05:42:39.866Z,9.50
2019-04-23T05:43:39.620Z,6.40
2019-04-23T05:44:38.297Z,7.70
2019-04-23T05:45:35.143Z,6.00
2019-04-23T05:46:36.690Z,7.70
2019-04-23T05:48:34.828Z,9.90
2019-04-23T05:49:36.429Z,6.70
2019-04-23T05:50:44.414Z,7.80
2019-04-23T05:52:39.675Z,7.30
2019-04-23T05:54:36.324Z,10.80
2019-04-23T05:55:34.337Z,8.50
2019-04-23T05:56:33.149Z,10.90
2019-04-23T05:57:34.526Z,8.40
2019-04-23T05:58:39.982Z,7.70
2019-04-23T06:00:41.304Z,9.60
2019-04-23T06:02:45.364Z,7.80
2019-04-23T06:03:39.873Z,8.60
2019-04-23T06:04:38.870Z,8.30
2019-04-23T06:05:40.096Z,8.30
2019-04-23T06:07:38.929Z,6.90
2019-04-23T06:09:37.836Z,8.50
2019-04-23T06:10:36.376Z,9.70
2019-04-23T06:11:45.673Z,6.70
2019-04-23T06:12:31.884Z,7.60
2019-04-23T06:13:35.588Z,8.10
2019-04-23T06:15:33.626Z,6.80
2019-04-23T06:16:44.008Z,9.70
2019-04-23T06:17:29.754Z,8.50
2019-04-23T06:18:38.822Z,7.30
2019-04-23T06:19:30.377Z,7.50
2019-04-23T06:20:46.953Z,7.60
2019-04-23T06:21:44.881Z,8.50
2019-04-23T06:22:38.567Z,6.30
2019-04-23T06:23:36.554Z,5.40
2019-04-23T06:24:34.326Z,7.30
2019-04-23T06:26:42.646Z,7.10
2019-04-23T06:27:35.179Z,6.90
2019-04-23T06:28:37.253Z,7.20
2019-04-23T06:30:41.912Z,7.50
2019-04-23T06:31:41.023Z,9.60
2019-04-23T06:32:32.909Z,7.60
2019-04-23T06:33:35.033Z,8.40
2019-04-23T06:34:48.421Z,8.10
2019-04-23T06:35:35.957Z,9.60
2019-04-23T06:36:32.377Z,7.80
2019-04-23T06:37:49.554Z,8.10
2019-04-23T06:38:54.649Z,7.20
2019-04-23T06:39:35.969Z,7.40
2019-04-23T06:40:33.871Z,6.20
2019-04-23T06:41:37.617Z,8.60
2019-04-23T06:42:29.271Z,8.20
2019-04-23T06:43:35.208Z,7.70
2019-04-23T06:44:32.283Z,9.40
2019-04-23T06:45:32.590Z,11.60
2019-04-23T06:46:39.229Z,9.20
2019-04-23T06:47:28.806Z,8.90
2019-04-23T06:48:38.462Z,11.30
2019-04-23T06:49:42.476Z,7.80
2019-04-23T06:50:36.961Z,9.40
2019-04-23T06:51:40.130Z,11.40
2019-04-23T06:52:45.707Z,9.30
2019-04-23T06:53:28.892Z,9.00
2019-04-23T06:55:37.362Z,7.80
2019-04-23T06:57:27.064Z,8.50
2019-04-23T06:59:33.548Z,6.30
2019-04-23T07:00:34.258Z,8.20
2019-04-23T07:01:37.839Z,7.00
2019-04-23T07:02:32.336Z,6.90
2019-04-23T07:03:38.947Z,6.70
2019-04-23T07:04:34.288Z,7.20
2019-04-23T07:05:37.649Z,9.10
2019-04-23T07:08:55.155Z,6.00
2019-04-23T07:09:40.092Z,6.30
2019-04-23T07:10:40.307Z,7.60
2019-04-23T07:11:42.840Z,7.50
2019-04-23T07:12:38.830Z,6.20
2019-04-23T07:13:40.067Z,8.00
2019-04-23T07:14:35.894Z,6.80
2019-04-23T07:16:34.645Z,9.10
2019-04-23T07:17:31.019Z,5.80
2019-04-23T07:18:31.166Z,8.30
2019-04-23T07:19:37.071Z,6.80
2019-04-23T07:20:33.500Z,6.10
2019-04-23T07:21:30.328Z,5.90
2019-04-23T07:22:31.827Z,5.30
2019-04-23T07:23:38.113Z,7.10
2019-04-23T07:24:28.477Z,10.80
2019-04-23T07:25:34.320Z,11.50
2019-04-23T07:26:34.842Z,7.40
2019-04-23T07:27:36.110Z,10.90
2019-04-23T07:28:36.318Z,12.40
2019-04-23T07:29:31.139Z,12.80
2019-04-23T07:30:32.963Z,7.40
2019-04-23T07:31:38.195Z,13.10
2019-04-23T07:32:30.644Z,7.80
2019-04-23T07:33:39.197Z,14.00
2019-04-23T07:34:28.282Z,8.70
2019-04-23T07:35:30.424Z,7.80
2019-04-23T07:36:36.778Z,10.10
2019-04-23T07:37:37.243Z,7.40
2019-04-23T07:38:42.176Z,5.80
2019-04-23T07:39:44.396Z,5.90
2019-04-23T07:41:46.476Z,6.50
2019-04-23T07:42:39.413Z,5.60
2019-04-23T07:43:32.307Z,7.60
2019-04-23T07:44:35.529Z,5.90
2019-04-23T07:45:39.924Z,6.70
2019-04-23T07:47:53.491Z,6.00
2019-04-23T07:48:24.235Z,6.90
2019-04-23T07:51:39.329Z,6.50
2019-04-23T07:53:35.804Z,6.70
2019-04-23T07:54:38.757Z,6.30
2019-04-23T07:55:44.355Z,7.40
2019-04-23T07:56:35.806Z,7.40
2019-04-23T07:57:36.717Z,9.00
2019-04-23T07:58:29.117Z,7.50
2019-04-23T07:59:39.069Z,6.50
2019-04-23T08:00:41.135Z,10.50
2019-04-23T08:01:32.578Z,5.80
2019-04-23T08:02:44.011Z,5.90
2019-04-23T08:03:35.178Z,5.00
2019-04-23T08:04:37.431Z,5.70
2019-04-23T08:05:35.815Z,6.80
2019-04-23T08:06:31.895Z,7.70
2019-04-23T08:07:37.806Z,6.70
2019-04-23T08:08:30.390Z,5.60
2019-04-23T08:09:35.398Z,5.80
2019-04-23T08:10:35.792Z,8.00
2019-04-23T08:12:40.219Z,9.50
2019-04-23T08:13:39.840Z,11.00
2019-04-23T08:14:34.291Z,6.20
2019-04-23T08:15:36.796Z,11.10
2019-04-23T08:16:35.803Z,5.60
2019-04-23T08:17:31.198Z,7.10
2019-04-23T08:18:39.895Z,6.30
2019-04-23T08:19:41.025Z,8.20
2019-04-23T08:20:37.019Z,5.50
2019-04-23T08:22:32.329Z,8.90
2019-04-23T08:23:38.264Z,9.00
2019-04-23T08:24:38.920Z,6.20
2019-04-23T08:25:37.307Z,6.10
2019-04-23T08:28:43.165Z,7.10
2019-04-23T08:29:28.065Z,8.40
2019-04-23T08:30:32.340Z,6.70
2019-04-23T08:31:40.347Z,5.70
2019-04-23T08:32:21.384Z,8.80
2019-04-23T08:33:31.860Z,7.00
2019-04-23T08:34:36.933Z,6.70
2019-04-23T08:35:35.821Z,7.30
2019-04-23T08:36:34.471Z,7.30
2019-04-23T08:37:51.556Z,7.30
2019-04-23T08:40:33.773Z,6.20
2019-04-23T08:43:42.333Z,7.20
2019-04-23T08:44:38.710Z,7.70
2019-04-23T08:46:43.325Z,6.90
2019-04-23T08:47:32.039Z,6.40
2019-04-23T08:48:55.991Z,7.50
2019-04-23T08:50:34.118Z,9.20
2019-04-23T08:52:31.173Z,8.20
2019-04-23T08:55:38.457Z,9.20
2019-04-23T08:56:42.803Z,6.40
2019-04-23T08:58:30.166Z,6.60
2019-04-23T09:00:42.457Z,6.30
2019-04-23T09:01:43.574Z,7.80
2019-04-23T09:03:33.297Z,10.40
2019-04-23T09:04:43.562Z,6.20
2019-04-23T09:06:29.473Z,6.80
2019-04-23T09:07:53.861Z,9.30
2019-04-23T09:08:43.769Z,9.00
2019-04-23T09:09:34.811Z,7.60
2019-04-23T09:10:39.000Z,12.60
2019-04-23T09:11:41.844Z,14.80
2019-04-23T09:12:38.525Z,11.60
2019-04-23T09:14:34.406Z,5.60
2019-04-23T09:15:40.141Z,8.30
2019-04-23T09:16:37.727Z,8.20
2019-04-23T09:17:34.631Z,6.70
2019-04-23T09:20:26.407Z,7.90
2019-04-23T09:21:33.179Z,8.60
2019-04-23T09:22:42.871Z,9.40
2019-04-23T09:23:40.881Z,11.00
2019-04-23T09:24:33.319Z,11.40
2019-04-23T09:25:44.045Z,8.80
2019-04-23T09:26:26.175Z,10.30
2019-04-23T09:27:38.833Z,7.10
2019-04-23T09:28:41.757Z,7.00
2019-04-23T09:29:40.613Z,6.90
2019-04-23T09:30:32.583Z,6.40
2019-04-23T09:32:00.809Z,6.70
2019-04-23T09:32:29.868Z,15.10
2019-04-23T09:33:44.482Z,10.40
2019-04-23T09:34:34.930Z,10.90
2019-04-23T09:35:30.754Z,7.10
2019-04-23T09:36:37.846Z,6.60
2019-04-23T09:37:35.667Z,6.70
2019-04-23T09:38:34.464Z,7.60
2019-04-23T09:39:36.242Z,8.30
2019-04-23T09:41:28.069Z,10.80
2019-04-23T09:43:31.250Z,11.40
2019-04-23T09:45:33.785Z,7.00
2019-04-23T09:46:29.038Z,8.60
2019-04-23T09:47:42.278Z,7.90
2019-04-23T09:48:35.446Z,9.90
2019-04-23T09:49:32.743Z,9.60
2019-04-23T09:50:52.449Z,7.40
2019-04-23T09:51:35.843Z,8.70
2019-04-23T09:52:41.073Z,7.50
2019-04-23T09:55:33.687Z,8.90
2019-04-23T09:56:35.876Z,13.10
2019-04-23T09:57:35.909Z,6.20
2019-04-23T09:58:28.732Z,6.60
2019-04-23T10:00:37.632Z,7.70
2019-04-23T10:01:29.119Z,7.00
2019-04-23T10:02:26.434Z,8.80
2019-04-23T10:03:21.241Z,7.80
2019-04-23T10:04:19.561Z,7.20
2019-04-23T10:05:18.168Z,6.40
2019-04-23T10:06:12.721Z,6.90
2019-04-23T10:07:16.207Z,7.50
2019-04-23T10:08:13.832Z,8.60
2019-04-23T10:09:08.287Z,15.50
2019-04-23T10:10:05.400Z,10.80
2019-04-23T10:11:05.110Z,6.90
2019-04-23T10:12:05.179Z,9.30
2019-04-23T10:13:04.190Z,8.80
2019-04-23T10:14:03.823Z,8.90
2019-04-23T10:15:11.013Z,6.20
2019-04-23T10:16:06.414Z,8.30
2019-04-23T10:17:04.269Z,7.00
2019-04-23T10:18:04.615Z,8.40
2019-04-23T10:19:03.871Z,9.10
2019-04-23T10:20:04.619Z,8.20
2019-04-23T10:21:03.741Z,7.20
2019-04-23T10:22:05.054Z,9.70
2019-04-23T10:23:04.197Z,8.10
2019-04-23T10:24:05.301Z,8.70
2019-04-23T10:25:03.721Z,6.50
2019-04-23T10:26:03.908Z,7.70
2019-04-23T10:27:04.162Z,6.70
2019-04-23T10:28:07.283Z,11.50
2019-04-23T10:29:05.603Z,10.00
2019-04-23T10:30:04.095Z,10.80
2019-04-23T10:31:04.888Z,9.40
2019-04-23T10:32:03.899Z,7.40
2019-04-23T10:33:03.636Z,8.50
2019-04-23T10:34:04.429Z,8.10
2019-04-23T10:35:10.396Z,7.70
2019-04-23T10:36:09.411Z,5.70
2019-04-23T10:37:05.172Z,7.00
2019-04-23T10:38:08.166Z,7.90
2019-04-23T10:39:11.777Z,8.30
2019-04-23T10:40:07.962Z,8.10
2019-04-23T10:41:04.622Z,8.70
2019-04-23T10:42:03.529Z,8.80
2019-04-23T10:43:05.291Z,7.80
2019-04-23T10:44:04.936Z,6.70
2019-04-23T10:45:19.333Z,9.50
2019-04-23T10:46:27.299Z,8.10
2019-04-23T10:47:30.528Z,10.90
2019-04-23T10:50:41.726Z,6.30
2019-04-23T10:51:33.911Z,8.10
2019-04-23T10:52:30.738Z,8.70
2019-04-23T10:53:46.822Z,8.40
2019-04-23T10:55:34.988Z,8.70
2019-04-23T10:57:26.579Z,6.90
2019-04-23T10:59:36.637Z,8.50
2019-04-23T11:00:30.260Z,7.30
2019-04-23T11:01:39.218Z,8.00
2019-04-23T11:03:52.087Z,8.60
2019-04-23T11:05:42.931Z,6.80
2019-04-23T11:06:44.350Z,6.40
2019-04-23T11:07:34.013Z,5.90
2019-04-23T11:08:31.001Z,10.40
2019-04-23T11:09:48.658Z,5.50
2019-04-23T11:10:25.967Z,8.20
2019-04-23T11:13:38.324Z,9.20
2019-04-23T11:14:42.276Z,5.70
2019-04-23T11:17:38.736Z,9.80
2019-04-23T11:18:45.231Z,8.30
2019-04-23T11:19:42.018Z,7.70
2019-04-23T11:20:34.043Z,6.30
2019-04-23T11:23:36.780Z,8.20
2019-04-23T11:24:41.576Z,7.90
2019-04-23T11:26:35.631Z,7.80
2019-04-23T11:27:37.696Z,7.40
2019-04-23T11:28:33.284Z,8.70
2019-04-23T11:29:48.598Z,6.40
2019-04-23T11:30:34.793Z,10.60
2019-04-23T11:31:37.026Z,7.10
2019-04-23T11:32:54.298Z,6.80
2019-04-23T11:33:51.043Z,6.00
2019-04-23T11:34:56.329Z,6.40
2019-04-23T11:35:39.522Z,9.90
2019-04-23T11:36:53.778Z,10.30
2019-04-23T11:37:41.270Z,7.20
2019-04-23T11:38:48.859Z,8.40
2019-04-23T11:39:43.228Z,5.50
2019-04-23T11:41:51.373Z,8.30
2019-04-23T11:42:39.032Z,8.20
2019-04-23T11:44:38.948Z,12.10
2019-04-23T11:46:45.696Z,7.90
2019-04-23T11:48:04.968Z,8.20
2019-04-23T11:48:48.089Z,6.90
2019-04-23T11:51:05.094Z,6.00
2019-04-23T11:51:54.000Z,7.10
2019-04-23T11:53:42.519Z,5.50
2019-04-23T11:54:31.014Z,6.50
2019-04-23T11:56:51.090Z,10.00
2019-04-23T11:58:39.274Z,7.30
2019-04-23T11:59:39.271Z,7.80
2019-04-23T12:00:45.074Z,5.60
2019-04-23T12:01:47.695Z,5.50
2019-04-23T12:02:38.656Z,5.90
2019-04-23T12:03:37.313Z,5.70
2019-04-23T12:04:57.548Z,8.50
2019-04-23T12:05:41.247Z,6.20
2019-04-23T12:07:33.937Z,7.90
2019-04-23T12:10:39.358Z,5.20
2019-04-23T12:13:41.357Z,5.40
2019-04-23T12:14:40.487Z,6.40
2019-04-23T12:15:32.859Z,8.60
2019-04-23T12:16:43.637Z,11.70
2019-04-23T12:17:48.960Z,6.50
2019-04-23T12:18:48.328Z,7.80
2019-04-23T12:19:52.178Z,5.20
2019-04-23T12:21:38.074Z,4.70
2019-04-23T12:23:42.524Z,5.80
2019-04-23T12:24:58.831Z,6.30
2019-04-23T12:25:36.401Z,5.80
2019-04-23T12:26:35.408Z,6.60
2019-04-23T12:27:31.087Z,6.20
2019-04-23T12:29:44.071Z,5.60
2019-04-23T12:31:37.930Z,8.70
2019-04-23T12:33:36.116Z,6.40
2019-04-23T12:34:39.564Z,6.40
2019-04-23T12:35:27.790Z,7.40
2019-04-23T12:37:35.005Z,6.20
2019-04-23T12:38:33.105Z,5.30
2019-04-23T12:39:35.969Z,10.00
2019-04-23T12:40:32.427Z,8.10
2019-04-23T12:41:36.079Z,6.50
2019-04-23T12:42:48.487Z,7.30
2019-04-23T12:43:23.669Z,6.00
2019-04-23T12:44:40.527Z,7.60
2019-04-23T12:45:30.170Z,9.60
2019-04-23T12:46:38.475Z,4.90
2019-04-23T12:47:46.327Z,5.20
2019-04-23T12:48:42.094Z,5.00
2019-04-23T12:50:48.729Z,5.60
2019-04-23T12:51:45.198Z,5.90
2019-04-23T12:52:34.331Z,4.80
2019-04-23T12:53:38.342Z,9.80
2019-04-23T12:54:41.452Z,10.20
2019-04-23T12:56:42.199Z,8.40
2019-04-23T12:57:34.320Z,5.80
2019-04-23T12:58:29.518Z,7.20
2019-04-23T12:59:27.231Z,9.20
2019-04-23T13:00:33.907Z,6.60
2019-04-23T13:01:35.717Z,8.60
2019-04-23T13:02:40.262Z,7.30
2019-04-23T13:03:29.966Z,7.50
2019-04-23T13:04:35.702Z,6.30
2019-04-23T13:05:31.360Z,5.30
2019-04-23T13:06:28.021Z,6.40
2019-04-23T13:07:46.829Z,5.30
2019-04-23T13:09:42.860Z,5.30
2019-04-23T13:10:38.772Z,9.40
2019-04-23T13:14:36.374Z,5.00
2019-04-23T13:15:29.019Z,6.60
2019-04-23T13:16:40.919Z,6.60
2019-04-23T13:17:46.931Z,6.10
2019-04-23T13:18:34.232Z,10.10
2019-04-23T13:19:44.880Z,9.10
2019-04-23T13:21:52.264Z,6.60
2019-04-23T13:23:34.708Z,9.10
2019-04-23T13:24:32.817Z,5.70
2019-04-23T13:25:35.131Z,7.40
2019-04-23T13:26:24.744Z,8.40
2019-04-23T13:27:38.751Z,9.90
2019-04-23T13:29:37.714Z,9.00
2019-04-23T13:31:42.797Z,6.50
2019-04-23T13:32:38.934Z,8.10
2019-04-23T13:34:40.736Z,5.80
2019-04-23T13:35:45.570Z,9.90
2019-04-23T13:36:36.318Z,7.30
2019-04-23T13:37:35.481Z,7.00
2019-04-23T13:39:33.325Z,4.60
2019-04-23T13:40:46.428Z,8.90
2019-04-23T13:41:33.545Z,6.60
2019-04-23T13:42:42.749Z,7.20
2019-04-23T13:43:36.328Z,8.20
2019-04-23T13:44:36.917Z,6.20
2019-04-23T13:45:56.435Z,5.30
2019-04-23T13:46:41.072Z,7.00
2019-04-23T13:49:37.512Z,5.30
2019-04-23T13:50:50.033Z,6.50
2019-04-23T13:53:05.300Z,7.60
2019-04-23T13:53:50.083Z,6.80
2019-04-23T13:55:00.291Z,4.70
2019-04-23T13:55:30.033Z,4.80
2019-04-23T13:56:39.307Z,4.50
2019-04-23T13:58:26.753Z,4.30
2019-04-23T13:59:41.661Z,6.50
2019-04-23T14:01:32.344Z,4.60
2019-04-23T14:02:36.887Z,5.70
2019-04-23T14:03:39.654Z,5.40
2019-04-23T14:04:38.368Z,5.80
2019-04-23T14:05:35.611Z,8.20
2019-04-23T14:06:47.086Z,5.50
2019-04-23T14:07:38.580Z,4.20
2019-04-23T14:10:36.645Z,5.60
2019-04-23T14:11:27.622Z,4.30
2019-04-23T14:12:32.035Z,4.10
2019-04-23T14:13:43.974Z,3.90
2019-04-23T14:14:44.628Z,4.60
2019-04-23T14:15:42.725Z,5.60
2019-04-23T14:17:48.948Z,4.30
2019-04-23T14:19:22.640Z,3.80
2019-04-23T14:20:36.834Z,6.80
2019-04-23T14:22:51.236Z,3.90
2019-04-23T14:23:44.207Z,6.30
2019-04-23T14:24:38.069Z,7.90
2019-04-23T14:25:28.137Z,4.40
2019-04-23T14:28:34.283Z,4.30
2019-04-23T14:29:42.815Z,7.90
2019-04-23T14:31:30.150Z,8.20
2019-04-23T14:32:28.572Z,4.90
2019-04-23T14:33:37.437Z,7.80
2019-04-23T14:34:27.213Z,4.90
2019-04-23T14:35:34.986Z,4.70
2019-04-23T14:37:38.163Z,7.20
2019-04-23T14:38:30.624Z,5.20
2019-04-23T14:40:34.369Z,13.50
2019-04-23T14:41:26.129Z,5.20
2019-04-23T14:43:04.284Z,6.90
2019-04-23T14:43:36.109Z,5.30
2019-04-23T14:44:22.546Z,7.30
2019-04-23T14:46:41.266Z,5.70
2019-04-23T14:47:46.292Z,5.30
2019-04-23T14:48:31.338Z,6.20
2019-04-23T14:49:33.937Z,5.80
2019-04-23T14:56:27.817Z,5.90
2019-04-23T14:57:45.741Z,6.30
2019-04-23T14:58:32.217Z,5.20
2019-04-23T14:59:24.179Z,4.30
2019-04-23T15:00:33.226Z,5.40
2019-04-23T15:02:36.349Z,6.00
2019-04-23T15:03:32.555Z,6.00
2019-04-23T15:04:36.028Z,4.00
2019-04-23T15:05:36.078Z,6.50
2019-04-23T15:07:31.372Z,5.70
2019-04-23T15:08:40.311Z,4.30
2019-04-23T15:09:36.744Z,6.70
2019-04-23T15:10:32.655Z,7.10
2019-04-23T15:12:30.549Z,5.90
2019-04-23T15:13:28.760Z,5.10
2019-04-23T15:14:32.666Z,8.60
2019-04-23T15:16:35.073Z,5.00
2019-04-23T15:17:30.520Z,8.00
2019-04-23T15:18:40.145Z,5.70
2019-04-23T15:19:36.643Z,10.30
2019-04-23T15:20:28.930Z,6.10
2019-04-23T15:22:32.445Z,6.50
2019-04-23T15:23:41.887Z,8.00
2019-04-23T15:24:30.703Z,8.60
2019-04-23T15:25:38.179Z,6.90
2019-04-23T15:28:03.570Z,4.80
2019-04-23T15:28:08.977Z,5.80
2019-04-23T15:29:13.030Z,5.10
2019-04-23T15:30:24.999Z,7.60
2019-04-23T15:31:32.914Z,9.00
2019-04-23T15:32:34.944Z,6.30
2019-04-23T15:33:40.712Z,7.30
2019-04-23T15:34:23.813Z,7.30
2019-04-23T15:36:48.523Z,8.00
2019-04-23T15:37:41.083Z,6.40
2019-04-23T15:38:45.431Z,8.90
2019-04-23T15:39:31.170Z,4.90
2019-04-23T15:40:26.878Z,7.30
2019-04-23T15:41:43.937Z,5.40
2019-04-23T15:42:51.025Z,5.70
2019-04-23T15:43:34.257Z,8.30
2019-04-23T15:44:23.232Z,10.10
2019-04-23T15:45:35.392Z,5.10
2019-04-23T15:46:33.007Z,5.20
2019-04-23T15:47:32.703Z,9.30
2019-04-23T15:48:31.953Z,6.90
2019-04-23T15:49:26.595Z,8.60
2019-04-23T15:51:35.219Z,7.10
2019-04-23T15:53:24.571Z,7.40
2019-04-23T15:54:38.665Z,8.00
2019-04-23T15:55:27.732Z,5.20
2019-04-23T15:57:45.196Z,8.50
2019-04-23T15:58:37.196Z,7.20
2019-04-23T16:00:39.849Z,5.80
2019-04-23T16:02:11.180Z,7.40
2019-04-23T16:03:10.459Z,7.90
2019-04-23T16:04:12.053Z,7.80
2019-04-23T16:05:12.130Z,7.00
2019-04-23T16:06:12.741Z,6.10
2019-04-23T16:07:13.597Z,6.00
2019-04-23T16:08:48.106Z,7.50
2019-04-23T16:09:37.123Z,6.10
2019-04-23T16:10:41.060Z,6.80
2019-04-23T16:11:47.897Z,9.20
2019-04-23T16:12:42.242Z,6.30
2019-04-23T16:13:54.390Z,9.30
2019-04-23T16:14:40.683Z,8.30
2019-04-23T16:15:45.388Z,7.30
2019-04-23T16:16:51.325Z,7.60
2019-04-23T16:17:41.229Z,7.10
2019-04-23T16:18:41.890Z,9.50
2019-04-23T16:19:43.240Z,7.50
2019-04-23T16:21:51.748Z,9.40
2019-04-23T16:22:36.912Z,7.90
2019-04-23T16:24:43.278Z,6.70
2019-04-23T16:25:36.303Z,7.30
2019-04-23T16:27:34.095Z,6.00
2019-04-23T16:29:00.418Z,6.40
2019-04-23T16:31:00.469Z,7.70
2019-04-23T16:31:39.909Z,7.10
2019-04-23T16:32:39.929Z,7.40
2019-04-23T16:33:35.296Z,7.20
2019-04-23T16:34:57.205Z,10.10
2019-04-23T16:36:41.442Z,6.20
2019-04-23T16:37:57.420Z,8.10
2019-04-23T16:39:39.448Z,7.20
2019-04-23T16:40:39.482Z,5.60
2019-04-23T16:41:40.320Z,8.90
2019-04-23T16:42:38.100Z,7.90
2019-04-23T16:43:44.054Z,6.10
2019-04-23T16:44:48.710Z,8.70
2019-04-23T16:45:41.023Z,8.10
2019-04-23T16:46:39.077Z,9.00
2019-04-23T16:47:36.610Z,7.60
2019-04-23T16:49:42.139Z,9.90
2019-04-23T16:50:57.824Z,9.60
2019-04-23T16:51:32.176Z,10.00
2019-04-23T16:52:32.746Z,8.10
2019-04-23T16:53:52.745Z,9.70
2019-04-23T16:54:38.837Z,8.40
2019-04-23T16:55:47.570Z,7.60
2019-04-23T16:57:01.184Z,6.50
2019-04-23T16:57:43.761Z,9.30